createdAt,value
2024-03-22T00:01:31.446Z,72.47
2024-03-22T00:04:03.133Z,72.36
2024-03-22T00:06:34.694Z,72.41
2024-03-22T00:09:07.059Z,72.33
2024-03-22T00:11:38.614Z,72.25
2024-03-22T00:14:10.806Z,72.08
2024-03-22T00:16:42.478Z,72.27
2024-03-22T00:19:14.569Z,72.33
2024-03-22T00:21:46.158Z,72.32
2024-03-22T00:24:18.101Z,72.11
2024-03-22T00:26:49.586Z,72.11
2024-03-22T00:29:21.150Z,71.98
2024-03-22T00:31:52.632Z,71.95
2024-03-22T00:34:24.377Z,71.85
2024-03-22T00:36:57.153Z,71.85
2024-03-22T00:39:28.862Z,71.75
2024-03-22T00:42:00.843Z,71.83
2024-03-22T00:44:32.724Z,72.00
2024-03-22T00:47:04.849Z,71.97
2024-03-22T00:49:37.042Z,71.90
2024-03-22T00:52:08.905Z,72.00
2024-03-22T00:54:41.725Z,72.06
2024-03-22T00:57:13.259Z,72.19
2024-03-22T00:59:47.186Z,72.03
2024-03-22T01:02:18.813Z,71.93
2024-03-22T01:04:50.356Z,71.96
2024-03-22T01:07:21.859Z,71.86
2024-03-22T01:09:54.066Z,71.78
2024-03-22T01:12:25.777Z,71.71
2024-03-22T01:14:57.986Z,71.78
2024-03-22T01:17:29.636Z,71.61
2024-03-22T01:20:01.261Z,71.56
2024-03-22T01:22:35.742Z,71.94
2024-03-22T01:25:08.902Z,71.81
2024-03-22T01:27:40.680Z,71.76
2024-03-22T01:30:13.708Z,71.92
2024-03-22T01:32:45.310Z,71.82
2024-03-22T01:35:17.995Z,71.81
2024-03-22T01:37:49.950Z,71.81
2024-03-22T01:40:21.697Z,71.88
2024-03-22T01:42:57.527Z,71.76
2024-03-22T01:45:34.014Z,71.67
2024-03-22T01:48:05.992Z,71.76
2024-03-22T01:50:38.180Z,71.73
2024-03-22T01:53:10.386Z,71.62
2024-03-22T01:55:42.120Z,71.55
2024-03-22T01:58:14.568Z,71.42
2024-03-22T02:00:47.108Z,71.60
2024-03-22T02:03:18.599Z,71.39
2024-03-22T02:05:50.237Z,71.78
2024-03-22T02:08:21.888Z,71.60
2024-03-22T02:10:53.984Z,71.60
2024-03-22T02:13:25.991Z,71.56
2024-03-22T02:15:58.613Z,71.68
2024-03-22T02:18:30.213Z,71.71
2024-03-22T02:21:01.702Z,71.66
2024-03-22T02:23:36.184Z,71.69
2024-03-22T02:26:09.428Z,71.65
2024-03-22T02:28:41.155Z,71.71
2024-03-22T02:31:12.712Z,71.81
2024-03-22T02:33:44.493Z,71.99
2024-03-22T02:36:16.796Z,72.02
2024-03-22T02:38:48.684Z,71.89
2024-03-22T02:41:20.823Z,72.03
2024-03-22T02:43:52.504Z,72.09
2024-03-22T02:46:24.034Z,72.18
2024-03-22T02:48:55.607Z,72.07
2024-03-22T02:51:27.049Z,72.28
2024-03-22T02:53:58.695Z,72.09
2024-03-22T02:56:31.473Z,72.39
2024-03-22T02:59:02.935Z,72.50
2024-03-22T03:01:34.682Z,72.50
2024-03-22T03:04:06.342Z,72.40
2024-03-22T03:06:37.910Z,72.49
2024-03-22T03:09:13.209Z,72.30
2024-03-22T03:11:46.246Z,72.31
2024-03-22T03:14:18.112Z,72.41
2024-03-22T03:16:49.676Z,72.30
2024-03-22T03:19:21.181Z,72.45
2024-03-22T03:21:52.818Z,72.53
2024-03-22T03:24:24.340Z,72.50
2024-03-22T03:26:56.182Z,72.39
2024-03-22T03:29:27.701Z,72.47
2024-03-22T03:31:59.377Z,72.51
2024-03-22T03:34:30.906Z,72.61
2024-03-22T03:37:02.575Z,72.55
2024-03-22T03:39:34.154Z,72.71
2024-03-22T03:42:06.073Z,72.73
2024-03-22T03:44:37.849Z,72.72
2024-03-22T03:47:10.288Z,72.77
2024-03-22T03:49:41.757Z,72.73
2024-03-22T03:52:13.477Z,72.58
2024-03-22T03:54:45.185Z,72.92
2024-03-22T03:57:17.408Z,73.19
2024-03-22T03:59:48.961Z,72.89
2024-03-22T04:02:20.611Z,72.86
2024-03-22T04:04:56.458Z,72.86
2024-03-22T04:07:26.832Z,72.90
2024-03-22T04:10:01.418Z,72.94
2024-03-22T04:12:33.687Z,73.11
2024-03-22T04:15:05.439Z,73.06
2024-03-22T04:17:37.287Z,73.24
2024-03-22T04:20:12.599Z,73.27
2024-03-22T04:22:44.242Z,73.27
2024-03-22T04:25:15.919Z,73.29
2024-03-22T04:27:47.503Z,73.47
2024-03-22T04:30:19.647Z,73.45
2024-03-22T04:32:51.329Z,73.61
2024-03-22T04:35:22.839Z,73.62
2024-03-22T04:37:54.563Z,73.59
2024-03-22T04:40:31.511Z,73.43
2024-03-22T04:43:03.268Z,73.62
2024-03-22T04:45:34.859Z,73.67
2024-03-22T04:48:08.390Z,73.78
2024-03-22T04:50:39.975Z,73.87
2024-03-22T04:53:11.644Z,73.68
2024-03-22T04:55:45.934Z,73.74
2024-03-22T04:58:19.324Z,73.84
2024-03-22T05:00:51.741Z,73.76
2024-03-22T05:03:23.253Z,73.77
2024-03-22T05:05:56.603Z,73.73
2024-03-22T05:08:28.305Z,73.74
2024-03-22T05:10:59.907Z,73.73
2024-03-22T05:13:32.388Z,73.75
2024-03-22T05:16:04.014Z,73.90
2024-03-22T05:18:35.810Z,73.89
2024-03-22T05:21:08.267Z,73.77
2024-03-22T05:23:39.910Z,73.81
2024-03-22T05:26:11.581Z,73.83
2024-03-22T05:28:43.613Z,73.85
2024-03-22T05:31:15.192Z,73.87
2024-03-22T05:33:48.056Z,73.84
2024-03-22T05:36:19.665Z,73.89
2024-03-22T05:38:51.170Z,73.89
2024-03-22T05:41:22.655Z,73.99
2024-03-22T05:43:54.287Z,73.94
2024-03-22T05:46:26.090Z,73.79
2024-03-22T05:48:58.173Z,73.97
2024-03-22T05:51:31.232Z,73.92
2024-03-22T05:54:04.029Z,73.98
2024-03-22T05:56:35.780Z,74.03
2024-03-22T05:59:07.704Z,73.95
2024-03-22T06:01:41.148Z,73.93
2024-03-22T06:04:12.764Z,73.97
2024-03-22T06:06:46.761Z,73.95
2024-03-22T06:09:25.789Z,73.84
2024-03-22T06:11:57.390Z,74.08
2024-03-22T06:14:32.056Z,74.00
2024-03-22T06:17:05.407Z,73.95
2024-03-22T06:19:37.437Z,74.06
2024-03-22T06:22:10.284Z,74.02
2024-03-22T06:24:42.136Z,74.15
2024-03-22T06:27:14.789Z,73.99
2024-03-22T06:29:47.543Z,74.10
2024-03-22T06:32:19.372Z,74.27
2024-03-22T06:34:51.007Z,74.19
2024-03-22T06:37:22.673Z,74.36
2024-03-22T06:39:54.095Z,74.23
2024-03-22T06:42:25.685Z,74.42
2024-03-22T06:44:57.328Z,74.47
2024-03-22T06:47:29.236Z,74.34
2024-03-22T06:50:01.391Z,74.44
2024-03-22T06:52:33.479Z,74.52
2024-03-22T06:55:05.677Z,74.28
2024-03-22T06:57:37.199Z,74.40
2024-03-22T07:00:11.843Z,74.38
2024-03-22T07:02:43.495Z,74.56
2024-03-22T07:05:15.035Z,74.65
2024-03-22T07:07:46.612Z,74.52
2024-03-22T07:10:18.784Z,74.60
2024-03-22T07:12:51.830Z,74.46
2024-03-22T07:15:25.426Z,74.44
2024-03-22T07:17:57.162Z,74.45
2024-03-22T07:20:29.345Z,74.32
2024-03-22T07:23:01.092Z,74.29
2024-03-22T07:25:32.659Z,74.26
2024-03-22T07:28:04.661Z,74.23
2024-03-22T07:30:39.477Z,74.41
2024-03-22T07:33:14.461Z,74.19
2024-03-22T07:35:46.899Z,74.33
2024-03-22T07:38:18.783Z,74.41
2024-03-22T07:40:50.520Z,74.17
2024-03-22T07:43:22.188Z,74.41
2024-03-22T07:45:53.860Z,74.24
2024-03-22T07:48:25.543Z,74.19
2024-03-22T07:51:01.347Z,74.09
2024-03-22T07:53:35.715Z,74.43
2024-03-22T07:56:08.118Z,74.41
2024-03-22T07:58:40.151Z,74.39
2024-03-22T08:01:11.826Z,74.55
2024-03-22T08:03:43.849Z,74.57
2024-03-22T08:06:15.835Z,74.46
2024-03-22T08:08:47.443Z,74.42
2024-03-22T08:11:19.249Z,74.51
2024-03-22T08:13:51.309Z,74.51
2024-03-22T08:16:23.001Z,74.43
2024-03-22T08:18:54.803Z,74.52
2024-03-22T08:21:27.576Z,74.38
2024-03-22T08:23:59.842Z,74.27
2024-03-22T08:26:31.591Z,74.44
2024-03-22T08:29:03.351Z,74.45
2024-03-22T08:31:35.356Z,74.46
2024-03-22T08:34:09.695Z,74.51
2024-03-22T08:36:41.460Z,74.29
2024-03-22T08:39:13.043Z,74.30
2024-03-22T08:41:45.851Z,74.35
2024-03-22T08:44:17.523Z,74.44
2024-03-22T08:46:49.790Z,74.33
2024-03-22T08:49:21.473Z,74.42
2024-03-22T08:51:54.599Z,74.41
2024-03-22T08:54:26.734Z,74.42
2024-03-22T08:56:58.986Z,74.31
2024-03-22T08:59:30.655Z,74.16
2024-03-22T09:02:02.356Z,74.35
2024-03-22T09:04:34.272Z,74.17
2024-03-22T09:07:06.444Z,74.18
2024-03-22T09:09:38.627Z,74.07
2024-03-22T09:12:11.420Z,74.09
2024-03-22T09:14:43.323Z,73.91
2024-03-22T09:17:15.474Z,73.87
2024-03-22T09:19:47.117Z,73.88
2024-03-22T09:22:18.840Z,73.82
2024-03-22T09:24:50.507Z,73.68
2024-03-22T09:27:22.566Z,73.86
2024-03-22T09:29:54.912Z,73.78
2024-03-22T09:32:28.017Z,73.81
2024-03-22T09:34:59.777Z,73.89
2024-03-22T09:37:31.458Z,73.88
2024-03-22T09:40:08.550Z,73.80
2024-03-22T09:42:42.937Z,73.91
2024-03-22T09:45:15.024Z,73.78
2024-03-22T09:47:47.809Z,73.66
2024-03-22T09:50:19.895Z,73.90
2024-03-22T09:52:54.333Z,73.95
2024-03-22T09:55:27.296Z,73.77
2024-03-22T09:57:59.137Z,73.67
2024-03-22T10:00:32.704Z,73.89
2024-03-22T10:03:06.132Z,73.79
2024-03-22T10:05:38.102Z,73.74
2024-03-22T10:08:10.618Z,73.75
2024-03-22T10:10:44.055Z,73.73
2024-03-22T10:13:17.109Z,73.76
2024-03-22T10:15:49.979Z,73.71
2024-03-22T10:18:23.022Z,73.65
2024-03-22T10:21:05.070Z,73.53
2024-03-22T10:23:36.744Z,73.31
2024-03-22T10:26:11.417Z,73.28
2024-03-22T10:28:48.537Z,72.93
2024-03-22T10:31:22.680Z,72.96
2024-03-22T10:33:56.685Z,72.91
2024-03-22T10:36:32.305Z,72.97
2024-03-22T10:39:06.217Z,72.74
2024-03-22T10:41:38.057Z,72.45
2024-03-22T10:44:10.584Z,72.38
2024-03-22T10:46:48.485Z,72.42
2024-03-22T10:49:21.839Z,72.13
2024-03-22T10:51:56.724Z,72.05
2024-03-22T10:54:33.189Z,72.06
2024-03-22T10:57:07.074Z,72.15
2024-03-22T10:59:38.962Z,72.21
2024-03-22T11:02:14.749Z,72.07
2024-03-22T11:04:55.489Z,72.12
2024-03-22T11:07:30.588Z,71.76
2024-03-22T11:10:07.447Z,71.97
2024-03-22T11:12:41.473Z,71.83
2024-03-22T11:15:14.350Z,71.33
2024-03-22T11:17:46.339Z,71.36
2024-03-22T11:20:18.019Z,70.97
2024-03-22T11:22:49.674Z,71.01
2024-03-22T11:25:21.510Z,70.89
2024-03-22T11:27:53.328Z,70.38
2024-03-22T11:30:27.749Z,70.58
2024-03-22T11:32:59.887Z,70.25
2024-03-22T11:35:31.751Z,69.90
2024-03-22T11:38:05.938Z,69.78
2024-03-22T11:40:38.193Z,69.68
2024-03-22T11:43:11.005Z,69.74
2024-03-22T11:45:44.280Z,69.55
2024-03-22T11:48:16.043Z,69.63
2024-03-22T11:50:49.609Z,69.60
2024-03-22T11:53:21.377Z,69.89
2024-03-22T11:55:54.089Z,70.29
2024-03-22T11:58:27.561Z,70.67
2024-03-22T12:01:12.486Z,70.76
2024-03-22T12:03:51.598Z,71.19
2024-03-22T12:06:24.216Z,71.50
2024-03-22T12:08:55.903Z,71.50
2024-03-22T12:11:28.073Z,71.80
2024-03-22T12:13:59.951Z,71.71
2024-03-22T12:16:31.570Z,71.75
2024-03-22T12:19:04.509Z,72.35
2024-03-22T12:21:39.178Z,72.60
2024-03-22T12:24:10.969Z,72.62
2024-03-22T12:26:44.980Z,72.68
2024-03-22T12:29:19.397Z,72.57
2024-03-22T12:31:51.642Z,72.86
2024-03-22T12:34:23.264Z,72.92
2024-03-22T12:36:55.237Z,72.39
2024-03-22T12:39:27.503Z,72.32
2024-03-22T12:41:59.196Z,72.01
2024-03-22T12:44:30.866Z,71.98
2024-03-22T12:47:03.164Z,71.49
2024-03-22T12:49:34.762Z,70.94
2024-03-22T12:52:07.816Z,70.79
2024-03-22T12:54:39.336Z,70.55
2024-03-22T12:57:12.122Z,70.67
2024-03-22T12:59:44.069Z,70.56
2024-03-22T13:02:18.259Z,70.05
2024-03-22T13:04:50.803Z,69.77
2024-03-22T13:07:24.404Z,70.08
2024-03-22T13:09:56.299Z,69.90
2024-03-22T13:12:27.860Z,70.12
2024-03-22T13:15:12.407Z,70.45
2024-03-22T13:17:48.282Z,70.40
2024-03-22T13:20:20.143Z,70.28
2024-03-22T13:22:52.010Z,70.21
2024-03-22T13:25:23.666Z,70.40
2024-03-22T13:27:55.303Z,70.54
2024-03-22T13:30:28.289Z,70.29
2024-03-22T13:33:00.314Z,70.25
2024-03-22T13:35:32.017Z,70.42
2024-03-22T13:38:03.610Z,70.13
2024-03-22T13:40:35.081Z,70.24
2024-03-22T13:43:06.835Z,69.84
2024-03-22T13:45:45.945Z,70.07
2024-03-22T13:48:17.503Z,70.12
2024-03-22T13:50:49.953Z,69.99
2024-03-22T13:53:23.030Z,70.19
2024-03-22T13:55:55.751Z,70.34
2024-03-22T13:58:28.374Z,70.55
2024-03-22T14:01:00.041Z,70.48
2024-03-22T14:03:31.974Z,70.64
2024-03-22T14:06:04.962Z,70.83
2024-03-22T14:08:37.066Z,71.05
2024-03-22T14:11:08.742Z,71.06
2024-03-22T14:13:40.512Z,71.29
2024-03-22T14:16:12.471Z,71.35
2024-03-22T14:18:44.095Z,71.68
2024-03-22T14:21:20.145Z,71.58
2024-03-22T14:23:52.434Z,71.81
2024-03-22T14:26:24.697Z,71.57
2024-03-22T14:28:56.321Z,71.71
2024-03-22T14:31:28.025Z,71.69
2024-03-22T14:34:00.699Z,71.83
2024-03-22T14:36:32.467Z,71.97
2024-03-22T14:39:06.460Z,71.85
2024-03-22T14:41:39.350Z,72.02
2024-03-22T14:44:10.874Z,71.79
2024-03-22T14:46:42.479Z,72.30
2024-03-22T14:49:14.194Z,72.56
2024-03-22T14:51:45.953Z,72.51
2024-03-22T14:54:19.076Z,72.68
2024-03-22T14:56:50.691Z,72.74
2024-03-22T14:59:22.373Z,72.87
2024-03-22T15:01:55.331Z,73.04
2024-03-22T15:04:27.384Z,72.84
2024-03-22T15:06:58.987Z,72.95
2024-03-22T15:09:30.732Z,73.42
2024-03-22T15:12:02.466Z,73.14
2024-03-22T15:14:34.075Z,73.08
2024-03-22T15:17:05.794Z,73.39
2024-03-22T15:19:37.453Z,73.30
2024-03-22T15:22:10.121Z,73.03
2024-03-22T15:24:43.231Z,73.16
2024-03-22T15:27:15.393Z,73.33
2024-03-22T15:29:47.680Z,73.38
2024-03-22T15:32:21.148Z,73.12
2024-03-22T15:34:53.274Z,73.20
2024-03-22T15:37:25.391Z,73.40
2024-03-22T15:39:57.425Z,73.40
2024-03-22T15:42:29.180Z,73.52
2024-03-22T15:45:04.881Z,73.77
2024-03-22T15:47:35.151Z,73.68
2024-03-22T15:50:08.348Z,73.81
2024-03-22T15:52:40.511Z,74.22
2024-03-22T15:55:13.003Z,74.10
2024-03-22T15:57:45.762Z,74.29
2024-03-22T16:00:21.066Z,74.44
2024-03-22T16:02:52.852Z,74.63
2024-03-22T16:05:24.672Z,74.69
2024-03-22T16:07:56.727Z,75.08
2024-03-22T16:10:28.958Z,75.13
2024-03-22T16:13:00.642Z,75.05
2024-03-22T16:15:32.699Z,75.07
2024-03-22T16:18:04.681Z,75.58
2024-03-22T16:20:36.721Z,75.36
2024-03-22T16:23:09.218Z,75.31
2024-03-22T16:25:41.326Z,75.23
2024-03-22T16:28:13.060Z,75.95
2024-03-22T16:30:44.846Z,75.82
2024-03-22T16:33:16.760Z,75.97
2024-03-22T16:35:48.492Z,76.15
2024-03-22T16:38:20.300Z,76.10
2024-03-22T16:40:52.174Z,75.97
2024-03-22T16:43:23.767Z,76.43
2024-03-22T16:45:55.693Z,76.50
2024-03-22T16:48:27.167Z,76.66
2024-03-22T16:51:00.644Z,76.76
2024-03-22T16:53:32.883Z,76.91
2024-03-22T16:56:04.548Z,76.95
2024-03-22T16:58:36.526Z,76.92
2024-03-22T17:01:09.562Z,77.14
2024-03-22T17:03:43.429Z,77.21
2024-03-22T17:06:21.424Z,77.50
2024-03-22T17:08:55.972Z,77.62
2024-03-22T17:11:27.560Z,77.64
2024-03-22T17:13:59.249Z,77.77
2024-03-22T17:16:31.006Z,78.01
2024-03-22T17:19:02.491Z,78.06
2024-03-22T17:21:34.167Z,78.11
2024-03-22T17:24:06.486Z,78.32
2024-03-22T17:26:41.561Z,78.19
2024-03-22T17:29:13.335Z,78.31
2024-03-22T17:31:44.864Z,78.25
2024-03-22T17:34:16.439Z,78.05
2024-03-22T17:36:48.054Z,78.06
2024-03-22T17:39:20.004Z,78.05
2024-03-22T17:41:51.550Z,78.07
2024-03-22T17:44:23.310Z,78.22
2024-03-22T17:46:54.928Z,78.14
2024-03-22T17:49:26.573Z,78.14
2024-03-22T17:51:58.131Z,78.33
2024-03-22T17:54:30.270Z,78.09
2024-03-22T17:57:01.913Z,78.01
2024-03-22T17:59:33.791Z,78.03
2024-03-22T18:02:05.869Z,78.15
2024-03-22T18:04:38.105Z,78.01
2024-03-22T18:07:13.217Z,77.88
2024-03-22T18:09:45.177Z,77.91
2024-03-22T18:12:16.767Z,78.05
2024-03-22T18:14:48.517Z,77.97
2024-03-22T18:17:20.022Z,77.85
2024-03-22T18:19:51.534Z,77.81
2024-03-22T18:22:23.236Z,77.64
2024-03-22T18:24:54.818Z,77.74
2024-03-22T18:27:26.967Z,77.94
2024-03-22T18:29:58.546Z,77.67
2024-03-22T18:32:30.094Z,77.74
2024-03-22T18:35:01.838Z,77.98
2024-03-22T18:37:33.475Z,78.00
2024-03-22T18:40:05.350Z,78.10
2024-03-22T18:42:37.019Z,78.15
2024-03-22T18:45:09.370Z,77.99
2024-03-22T18:47:41.327Z,78.08
2024-03-22T18:50:13.199Z,77.92
2024-03-22T18:52:44.769Z,77.88
2024-03-22T18:55:16.474Z,77.97
2024-03-22T18:57:48.010Z,77.96
2024-03-22T19:00:20.708Z,77.80
2024-03-22T19:02:52.903Z,77.90
2024-03-22T19:05:24.680Z,78.04
2024-03-22T19:07:56.829Z,77.94
2024-03-22T19:10:29.005Z,77.89
2024-03-22T19:13:00.548Z,78.10
2024-03-22T19:15:32.164Z,77.66
2024-03-22T19:18:05.092Z,77.76
2024-03-22T19:20:36.654Z,77.95
2024-03-22T19:23:08.723Z,78.09
2024-03-22T19:25:40.320Z,77.86
2024-03-22T19:28:12.112Z,77.98
2024-03-22T19:30:43.778Z,78.02
2024-03-22T19:33:16.592Z,77.67
2024-03-22T19:35:48.271Z,77.80
2024-03-22T19:38:19.797Z,77.79
2024-03-22T19:40:51.321Z,77.95
2024-03-22T19:43:23.809Z,77.73
2024-03-22T19:45:56.200Z,77.48
2024-03-22T19:48:27.853Z,77.66
2024-03-22T19:50:59.562Z,77.51
2024-03-22T19:53:31.318Z,77.67
2024-03-22T19:56:02.927Z,77.65
2024-03-22T19:58:34.526Z,77.62
2024-03-22T20:01:06.285Z,77.71
2024-03-22T20:03:37.761Z,77.59
2024-03-22T20:06:09.584Z,77.44
2024-03-22T20:08:41.116Z,77.53
2024-03-22T20:11:12.961Z,77.58
2024-03-22T20:13:44.654Z,77.49
2024-03-22T20:16:16.278Z,77.58
2024-03-22T20:18:48.573Z,77.74
2024-03-22T20:21:20.134Z,77.50
2024-03-22T20:23:51.558Z,77.52
2024-03-22T20:26:23.668Z,77.39
2024-03-22T20:28:57.969Z,77.31
2024-03-22T20:31:29.624Z,77.22
2024-03-22T20:34:01.180Z,77.17
2024-03-22T20:36:32.672Z,77.29
2024-03-22T20:39:07.972Z,77.44
2024-03-22T20:41:40.034Z,77.15
2024-03-22T20:44:13.911Z,77.04
2024-03-22T20:46:45.473Z,77.18
2024-03-22T20:49:17.122Z,77.06
2024-03-22T20:51:52.823Z,77.15
2024-03-22T20:54:24.257Z,76.85
2024-03-22T20:56:55.683Z,76.92
2024-03-22T20:59:27.216Z,76.91
2024-03-22T21:01:58.801Z,76.93
2024-03-22T21:04:30.310Z,76.87
2024-03-22T21:07:02.327Z,76.65
2024-03-22T21:09:33.785Z,76.68
2024-03-22T21:12:05.282Z,76.49
2024-03-22T21:14:36.777Z,76.57
2024-03-22T21:17:08.375Z,76.52
2024-03-22T21:19:40.406Z,76.19
2024-03-22T21:22:11.950Z,76.59
2024-03-22T21:24:43.425Z,76.37
2024-03-22T21:27:15.096Z,76.24
2024-03-22T21:29:46.732Z,76.10
2024-03-22T21:32:18.241Z,75.70
2024-03-22T21:34:49.986Z,75.72
2024-03-22T21:37:21.492Z,75.51
2024-03-22T21:39:53.861Z,75.16
2024-03-22T21:42:26.402Z,74.91
2024-03-22T21:44:58.001Z,74.70
2024-03-22T21:47:29.441Z,74.76
2024-03-22T21:50:00.849Z,74.54
2024-03-22T21:52:32.397Z,74.56
2024-03-22T21:55:04.417Z,74.81
2024-03-22T21:57:36.035Z,74.42
2024-03-22T22:00:08.101Z,74.09
2024-03-22T22:02:39.644Z,73.86
2024-03-22T22:05:11.174Z,73.94
2024-03-22T22:07:42.725Z,73.72
2024-03-22T22:10:14.712Z,73.51
2024-03-22T22:12:46.176Z,73.41
2024-03-22T22:15:17.800Z,73.19
2024-03-22T22:17:53.084Z,73.41
2024-03-22T22:20:24.645Z,73.31
2024-03-22T22:22:56.288Z,73.42
2024-03-22T22:25:27.748Z,73.50
2024-03-22T22:27:59.267Z,73.37
2024-03-22T22:30:31.070Z,73.25
2024-03-22T22:33:02.645Z,73.34
2024-03-22T22:35:34.313Z,73.28
2024-03-22T22:38:07.764Z,73.04
2024-03-22T22:40:39.459Z,72.97
2024-03-22T22:43:11.051Z,73.11
2024-03-22T22:45:42.703Z,73.08
2024-03-22T22:48:14.573Z,73.29
2024-03-22T22:50:46.210Z,73.17
2024-03-22T22:53:17.773Z,73.07
2024-03-22T22:55:50.135Z,72.79
2024-03-22T22:58:21.808Z,72.35
2024-03-22T23:00:53.733Z,71.93
2024-03-22T23:03:25.592Z,71.50
2024-03-22T23:05:57.289Z,71.03
2024-03-22T23:08:28.726Z,70.60
2024-03-22T23:11:00.357Z,70.47
2024-03-22T23:13:32.057Z,70.28
2024-03-22T23:16:05.417Z,70.08
2024-03-22T23:18:37.028Z,70.22
2024-03-22T23:21:10.735Z,70.34
2024-03-22T23:23:42.289Z,70.39
2024-03-22T23:26:14.171Z,70.51
2024-03-22T23:28:45.722Z,70.77
2024-03-22T23:31:17.483Z,70.89
2024-03-22T23:33:49.168Z,70.93
2024-03-22T23:36:20.973Z,70.96
2024-03-22T23:38:52.743Z,70.88
2024-03-22T23:41:24.247Z,70.97
2024-03-22T23:43:55.885Z,71.01
2024-03-22T23:46:28.391Z,71.12
2024-03-22T23:49:01.271Z,71.32
2024-03-22T23:51:33.089Z,71.23
2024-03-22T23:54:04.936Z,71.46
2024-03-22T23:56:40.150Z,71.67
2024-03-22T23:59:14.359Z,71.76
